createdAt,value
2022-10-12T00:01:08.143Z,6.30
2022-10-12T00:03:35.949Z,10.20
2022-10-12T00:06:11.717Z,9.20
2022-10-12T00:08:39.807Z,9.20
2022-10-12T00:11:08.160Z,6.70
2022-10-12T00:13:38.634Z,7.30
2022-10-12T00:16:13.648Z,7.05
2022-10-12T00:18:41.137Z,11.57
2022-10-12T00:21:12.686Z,5.97
2022-10-12T00:23:40.631Z,9.80
2022-10-12T00:26:10.735Z,12.25
2022-10-12T00:28:38.186Z,12.07
2022-10-12T00:31:17.513Z,11.45
2022-10-12T00:33:44.880Z,10.45
2022-10-12T00:36:17.834Z,13.63
2022-10-12T00:38:45.012Z,10.88
2022-10-12T00:41:12.651Z,5.35
2022-10-12T00:43:42.267Z,6.93
2022-10-12T00:46:20.486Z,9.52
2022-10-12T00:48:52.465Z,8.90
2022-10-12T00:51:21.551Z,10.57
2022-10-12T00:53:54.284Z,8.73
2022-10-12T00:56:24.153Z,13.05
2022-10-12T00:58:52.231Z,7.55
2022-10-12T01:01:19.731Z,8.23
2022-10-12T01:03:47.746Z,13.43
2022-10-12T01:06:15.023Z,11.95
2022-10-12T01:08:42.527Z,8.55
2022-10-12T01:11:09.368Z,6.10
2022-10-12T01:13:36.436Z,5.45
2022-10-12T01:16:14.125Z,6.72
2022-10-12T01:18:56.111Z,6.95
2022-10-12T01:21:24.067Z,10.43
2022-10-12T01:24:07.315Z,9.45
2022-10-12T01:27:04.057Z,10.15
2022-10-12T01:29:36.858Z,6.82
2022-10-12T01:32:15.432Z,6.82
2022-10-12T01:35:05.407Z,6.75
2022-10-12T01:37:56.947Z,6.32
2022-10-12T01:40:33.167Z,7.38
2022-10-12T01:43:00.442Z,6.60
2022-10-12T01:45:27.118Z,10.15
2022-10-12T01:47:55.549Z,5.45
2022-10-12T01:50:28.151Z,8.13
2022-10-12T01:53:29.404Z,7.30
2022-10-12T01:56:17.807Z,7.20
2022-10-12T01:59:00.708Z,6.78
2022-10-12T02:01:44.870Z,4.32
2022-10-12T02:04:30.835Z,5.30
2022-10-12T02:07:06.460Z,6.70
2022-10-12T02:09:35.625Z,7.80
2022-10-12T02:12:11.262Z,7.72
2022-10-12T02:14:43.272Z,3.88
2022-10-12T02:17:13.963Z,5.85
2022-10-12T02:19:44.738Z,8.13
2022-10-12T02:22:13.300Z,5.95
2022-10-12T02:24:44.087Z,5.63
2022-10-12T02:27:13.415Z,3.53
2022-10-12T02:29:43.056Z,3.85
2022-10-12T02:32:29.919Z,6.97
2022-10-12T02:35:05.214Z,3.25
2022-10-12T02:37:44.130Z,4.93
2022-10-12T02:40:21.586Z,6.10
2022-10-12T02:43:15.827Z,4.53
2022-10-12T02:45:45.254Z,9.02
2022-10-12T02:48:16.278Z,3.10
2022-10-12T02:50:43.401Z,5.30
2022-10-12T02:53:10.576Z,2.95
2022-10-12T02:55:52.321Z,3.47
2022-10-12T02:58:19.936Z,2.83
2022-10-12T03:00:46.804Z,2.55
2022-10-12T03:03:13.756Z,3.85
2022-10-12T03:05:40.402Z,4.47
2022-10-12T03:08:06.984Z,3.67
2022-10-12T03:10:33.643Z,4.25
2022-10-12T03:13:00.270Z,4.55
2022-10-12T03:15:27.104Z,2.83
2022-10-12T03:17:53.968Z,4.28
2022-10-12T03:20:20.763Z,4.97
2022-10-12T03:22:47.713Z,3.40
2022-10-12T03:25:14.759Z,5.63
2022-10-12T03:27:41.536Z,4.82
2022-10-12T03:30:09.444Z,3.92
2022-10-12T03:32:36.214Z,5.85
2022-10-12T03:35:03.312Z,10.55
2022-10-12T03:37:29.936Z,5.53
2022-10-12T03:39:56.503Z,4.97
2022-10-12T03:42:23.273Z,10.23
2022-10-12T03:44:49.975Z,4.47
2022-10-12T03:47:16.597Z,5.30
2022-10-12T03:49:43.270Z,6.28
2022-10-12T03:52:09.955Z,4.32
2022-10-12T03:54:36.548Z,8.60
2022-10-12T03:57:03.383Z,11.35
2022-10-12T03:59:30.140Z,8.07
2022-10-12T04:01:56.876Z,9.48
2022-10-12T04:04:23.593Z,11.02
2022-10-12T04:06:50.344Z,6.45
2022-10-12T04:09:17.300Z,7.07
2022-10-12T04:11:44.209Z,5.93
2022-10-12T04:14:10.815Z,7.55
2022-10-12T04:16:37.828Z,12.60
2022-10-12T04:19:04.792Z,9.15
2022-10-12T04:21:32.300Z,10.90
2022-10-12T04:23:58.883Z,7.80
2022-10-12T04:26:25.454Z,11.20
2022-10-12T04:28:52.100Z,11.60
2022-10-12T04:31:18.913Z,7.68
2022-10-12T04:33:45.488Z,14.38
2022-10-12T04:36:13.203Z,11.35
2022-10-12T04:38:39.823Z,9.95
2022-10-12T04:41:06.433Z,10.38
2022-10-12T04:43:33.096Z,11.52
2022-10-12T04:46:00.618Z,13.10
2022-10-12T04:48:28.143Z,10.82
2022-10-12T04:50:54.780Z,14.82
2022-10-12T04:53:21.580Z,13.18
2022-10-12T04:55:48.203Z,13.70
2022-10-12T04:58:15.332Z,9.52
2022-10-12T05:00:41.940Z,10.73
2022-10-12T05:03:08.717Z,15.77
2022-10-12T05:05:36.391Z,10.35
2022-10-12T05:08:04.118Z,8.35
2022-10-12T05:10:31.004Z,12.30
2022-10-12T05:12:57.725Z,12.20
2022-10-12T05:15:24.887Z,13.25
2022-10-12T05:17:51.480Z,12.88
2022-10-12T05:20:18.568Z,17.23
2022-10-12T05:22:45.164Z,10.63
2022-10-12T05:25:12.031Z,18.40
2022-10-12T05:27:39.233Z,11.52
2022-10-12T05:30:08.180Z,11.60
2022-10-12T05:32:35.002Z,15.65
2022-10-12T05:35:01.863Z,11.07
2022-10-12T05:37:28.441Z,13.00
2022-10-12T05:39:55.275Z,10.88
2022-10-12T05:42:22.109Z,12.07
2022-10-12T05:44:48.688Z,12.50
2022-10-12T05:47:15.330Z,15.45
2022-10-12T05:49:42.021Z,14.60
2022-10-12T05:52:08.768Z,10.98
2022-10-12T05:54:35.393Z,14.07
2022-10-12T05:57:02.142Z,10.10
2022-10-12T05:59:28.896Z,10.38
2022-10-12T06:01:55.691Z,11.98
2022-10-12T06:04:22.558Z,16.17
2022-10-12T06:06:49.374Z,12.48
2022-10-12T06:09:16.115Z,14.18
2022-10-12T06:11:42.963Z,8.70
2022-10-12T06:14:09.566Z,12.82
2022-10-12T06:16:36.199Z,8.98
2022-10-12T06:19:02.867Z,12.20
2022-10-12T06:21:34.204Z,8.30
2022-10-12T06:24:01.669Z,15.20
2022-10-12T06:26:28.339Z,9.02
2022-10-12T06:28:54.949Z,12.82
2022-10-12T06:31:21.775Z,12.63
2022-10-12T06:33:50.802Z,10.38
2022-10-12T06:36:17.701Z,13.18
2022-10-12T06:38:44.460Z,11.68
2022-10-12T06:41:11.776Z,8.35
2022-10-12T06:43:38.382Z,15.13
2022-10-12T06:46:05.705Z,12.00
2022-10-12T06:48:32.565Z,15.25
2022-10-12T06:50:59.298Z,9.13
2022-10-12T06:53:28.701Z,14.77
2022-10-12T06:55:55.346Z,14.30
2022-10-12T06:58:22.055Z,9.65
2022-10-12T07:00:48.682Z,16.17
2022-10-12T07:03:16.478Z,17.48
2022-10-12T07:05:43.092Z,15.85
2022-10-12T07:08:09.916Z,14.85
2022-10-12T07:10:36.702Z,14.35
2022-10-12T07:13:03.321Z,17.63
2022-10-12T07:15:30.204Z,14.73
2022-10-12T07:17:56.785Z,17.92
2022-10-12T07:20:23.506Z,15.07
2022-10-12T07:22:53.235Z,17.70
2022-10-12T07:25:22.070Z,13.50
2022-10-12T07:27:49.172Z,19.02
2022-10-12T07:30:15.851Z,15.60
2022-10-12T07:32:44.391Z,23.73
2022-10-12T07:35:11.229Z,20.90
2022-10-12T07:37:38.111Z,27.67
2022-10-12T07:40:05.319Z,21.00
2022-10-12T07:42:31.920Z,25.95
2022-10-12T07:44:58.519Z,32.83
2022-10-12T07:47:25.116Z,22.88
2022-10-12T07:49:51.809Z,26.15
2022-10-12T07:52:18.542Z,32.13
2022-10-12T07:54:45.191Z,32.17
2022-10-12T07:57:11.858Z,28.08
2022-10-12T07:59:38.744Z,37.30
2022-10-12T08:02:05.565Z,46.22
2022-10-12T08:04:32.260Z,38.97
2022-10-12T08:06:59.591Z,33.53
2022-10-12T08:09:26.264Z,47.13
2022-10-12T08:11:53.065Z,42.80
2022-10-12T08:14:19.724Z,51.38
2022-10-12T08:16:46.445Z,53.20
2022-10-12T08:19:13.710Z,54.67
2022-10-12T08:21:41.914Z,48.45
2022-10-12T08:24:10.340Z,58.58
2022-10-12T08:26:37.413Z,69.22
2022-10-12T08:29:04.995Z,51.45
2022-10-12T08:31:32.207Z,78.88
2022-10-12T08:33:59.463Z,73.15
2022-10-12T08:36:26.533Z,72.20
2022-10-12T08:38:55.339Z,78.10
2022-10-12T08:42:05.663Z,84.72
2022-10-12T08:44:52.624Z,76.03
2022-10-12T08:47:29.329Z,76.82
2022-10-12T08:49:56.071Z,83.65
2022-10-12T08:52:26.804Z,82.05
2022-10-12T08:54:56.371Z,82.93
2022-10-12T08:57:23.176Z,93.72
2022-10-12T08:59:49.805Z,81.93
2022-10-12T09:02:54.918Z,75.50
2022-10-12T09:05:35.524Z,88.90
2022-10-12T09:08:14.062Z,82.05
2022-10-12T09:10:54.336Z,60.72
2022-10-12T09:13:46.910Z,51.85
2022-10-12T09:16:23.764Z,55.03
2022-10-12T09:18:55.236Z,37.55
2022-10-12T09:21:24.867Z,57.85
2022-10-12T09:23:52.117Z,48.10
2022-10-12T09:26:35.745Z,40.70
2022-10-12T09:29:04.694Z,42.22
2022-10-12T09:31:40.471Z,35.95
2022-10-12T09:34:08.613Z,38.67
2022-10-12T09:36:39.916Z,36.10
2022-10-12T09:39:26.871Z,31.83
2022-10-12T09:41:56.200Z,36.40
2022-10-12T09:44:31.824Z,28.10
2022-10-12T09:47:06.294Z,28.77
2022-10-12T09:49:43.290Z,42.20
2022-10-12T09:52:11.822Z,30.90
2022-10-12T09:54:47.966Z,27.65
2022-10-12T09:57:31.241Z,41.88
2022-10-12T10:00:01.079Z,37.67
2022-10-12T10:02:28.127Z,41.40
2022-10-12T10:04:55.105Z,35.97
2022-10-12T10:07:33.720Z,37.17
2022-10-12T10:10:13.754Z,33.72
2022-10-12T10:12:56.830Z,39.40
2022-10-12T10:15:30.420Z,37.08
2022-10-12T10:18:21.676Z,40.97
2022-10-12T10:20:53.248Z,40.65
2022-10-12T10:23:29.779Z,38.67
2022-10-12T10:26:08.208Z,37.60
2022-10-12T10:28:37.233Z,44.35
2022-10-12T10:31:05.372Z,36.22
2022-10-12T10:33:34.211Z,36.13
2022-10-12T10:36:09.204Z,39.15
2022-10-12T10:39:02.817Z,44.15
2022-10-12T10:41:40.440Z,45.92
2022-10-12T10:44:26.946Z,44.67
2022-10-12T10:46:55.823Z,39.83
2022-10-12T10:49:47.080Z,41.42
2022-10-12T10:52:28.049Z,33.60
2022-10-12T10:55:13.227Z,39.95
2022-10-12T11:03:12.749Z,43.85
2022-10-12T11:05:49.292Z,40.55
2022-10-12T11:08:30.388Z,42.90
2022-10-12T11:11:02.332Z,36.38
2022-10-12T11:13:34.271Z,42.75
2022-10-12T11:16:12.550Z,35.50
2022-10-12T11:18:49.634Z,30.35
2022-10-12T11:21:22.439Z,32.97
2022-10-12T11:24:02.938Z,29.23
2022-10-12T11:26:31.931Z,36.25
2022-10-12T11:29:00.717Z,49.22
2022-10-12T11:31:38.075Z,37.70
2022-10-12T11:34:12.622Z,33.15
2022-10-12T11:37:14.356Z,39.88
2022-10-12T11:39:41.747Z,34.50
2022-10-12T11:42:21.942Z,34.92
2022-10-12T11:44:49.753Z,38.88
2022-10-12T11:47:38.584Z,39.35
2022-10-12T11:50:18.534Z,28.65
2022-10-12T11:52:48.273Z,34.25
2022-10-12T11:55:55.793Z,32.55
2022-10-12T11:58:42.252Z,36.50
2022-10-12T12:01:40.146Z,29.35
2022-10-12T12:04:40.560Z,31.88
2022-10-12T12:07:23.162Z,29.35
2022-10-12T12:09:51.298Z,28.55
2022-10-12T12:12:27.056Z,34.63
2022-10-12T12:14:53.635Z,21.85
2022-10-12T12:17:20.358Z,26.92
2022-10-12T12:19:51.811Z,29.15
2022-10-12T12:22:28.552Z,34.10
2022-10-12T12:25:12.948Z,25.02
2022-10-12T12:27:56.009Z,24.93
2022-10-12T12:30:39.359Z,18.60
2022-10-12T12:33:21.216Z,27.95
2022-10-12T12:35:57.720Z,16.38
2022-10-12T12:38:27.777Z,16.13
2022-10-12T12:41:08.499Z,19.77
2022-10-12T12:43:39.104Z,19.17
2022-10-12T12:46:11.056Z,12.50
2022-10-12T12:48:43.787Z,23.13
2022-10-12T12:51:12.182Z,20.95
2022-10-12T12:53:48.580Z,20.25
2022-10-12T12:56:18.160Z,19.17
2022-10-12T12:59:03.337Z,15.75
2022-10-12T13:04:00.537Z,16.73
2022-10-12T13:07:02.552Z,13.73
2022-10-12T13:09:35.516Z,18.23
2022-10-12T13:12:18.080Z,22.15
2022-10-12T13:14:56.894Z,22.00
2022-10-12T13:17:53.960Z,24.23
2022-10-12T13:20:26.445Z,23.52
2022-10-12T13:22:55.047Z,14.60
2022-10-12T13:25:30.200Z,16.20
2022-10-12T13:27:57.915Z,17.67
2022-10-12T13:30:35.687Z,17.77
2022-10-12T13:33:05.807Z,18.48
2022-10-12T13:35:45.226Z,13.55
2022-10-12T13:38:14.689Z,16.95
2022-10-12T13:41:04.237Z,12.93
2022-10-12T13:43:45.132Z,16.90
2022-10-12T13:46:33.808Z,21.05
2022-10-12T13:49:02.098Z,18.67
2022-10-12T13:51:30.830Z,13.93
2022-10-12T13:53:57.938Z,12.70
2022-10-12T13:56:29.804Z,18.17
2022-10-12T13:59:04.256Z,9.32
2022-10-12T14:01:35.524Z,15.25
2022-10-12T14:04:04.888Z,7.90
2022-10-12T14:06:34.735Z,13.38
2022-10-12T14:09:19.595Z,14.15
2022-10-12T14:11:47.154Z,20.00
2022-10-12T14:14:24.216Z,7.35
2022-10-12T14:16:51.634Z,10.48
2022-10-12T14:19:41.216Z,12.77
2022-10-12T14:22:08.494Z,11.75
2022-10-12T14:24:36.664Z,14.95
2022-10-12T14:27:06.254Z,12.80
2022-10-12T14:29:46.872Z,13.52
2022-10-12T14:32:13.417Z,16.38
2022-10-12T14:34:44.947Z,18.33
2022-10-12T14:37:14.671Z,16.67
2022-10-12T14:39:43.226Z,15.30
2022-10-12T14:42:33.722Z,13.23
2022-10-12T14:45:01.935Z,14.52
2022-10-12T14:47:32.293Z,11.00
2022-10-12T14:50:00.359Z,14.98
2022-10-12T14:52:38.932Z,13.02
2022-10-12T14:55:06.389Z,15.07
2022-10-12T14:57:32.996Z,12.90
2022-10-12T14:59:59.665Z,16.33
2022-10-12T15:02:31.464Z,10.70
2022-10-12T15:04:59.442Z,25.25
2022-10-12T15:07:35.371Z,13.18
2022-10-12T15:10:02.072Z,14.27
2022-10-12T15:12:32.328Z,13.95
2022-10-12T15:15:01.446Z,20.13
2022-10-12T15:17:28.083Z,14.57
2022-10-12T15:19:54.730Z,19.65
2022-10-12T15:22:24.790Z,13.90
2022-10-12T15:24:52.817Z,16.45
2022-10-12T15:27:20.451Z,15.55
2022-10-12T15:29:50.667Z,15.45
2022-10-12T15:32:18.717Z,17.98
2022-10-12T15:34:45.581Z,20.80
2022-10-12T15:37:12.230Z,15.70
2022-10-12T15:39:39.107Z,13.75
2022-10-12T15:42:05.817Z,19.52
2022-10-12T15:44:38.940Z,13.10
2022-10-12T15:47:05.584Z,13.63
2022-10-12T15:49:32.298Z,14.82
2022-10-12T15:52:00.340Z,15.70
2022-10-12T15:54:27.031Z,24.13
2022-10-12T15:56:54.113Z,13.35
2022-10-12T15:59:20.736Z,14.52
2022-10-12T16:01:47.350Z,13.38
2022-10-12T16:04:15.718Z,15.23
2022-10-12T16:06:42.355Z,14.55
2022-10-12T16:09:09.179Z,15.40
2022-10-12T16:11:35.929Z,15.80
2022-10-12T16:14:02.623Z,14.20
2022-10-12T16:16:32.301Z,15.68
2022-10-12T16:18:58.948Z,14.65
2022-10-12T16:21:25.767Z,16.23
2022-10-12T16:23:52.393Z,16.48
2022-10-12T16:26:19.066Z,14.88
2022-10-12T16:28:45.744Z,11.35
2022-10-12T16:31:15.940Z,13.95
2022-10-12T16:33:43.215Z,18.15
2022-10-12T16:36:15.368Z,9.02
2022-10-12T16:38:43.055Z,17.27
2022-10-12T16:41:11.576Z,21.70
2022-10-12T16:43:38.656Z,16.15
2022-10-12T16:46:05.817Z,17.75
2022-10-12T16:48:32.483Z,25.70
2022-10-12T16:50:59.330Z,19.58
2022-10-12T16:53:26.610Z,19.25
2022-10-12T16:55:53.206Z,18.33
2022-10-12T16:58:19.865Z,14.98
2022-10-12T17:00:46.536Z,15.25
2022-10-12T17:03:14.011Z,17.40
2022-10-12T17:05:42.837Z,17.70
2022-10-12T17:08:14.942Z,16.17
2022-10-12T17:10:44.295Z,11.10
2022-10-12T17:13:13.195Z,14.25
2022-10-12T17:15:41.076Z,10.23
2022-10-12T17:18:08.309Z,13.80
2022-10-12T17:20:35.968Z,18.63
2022-10-12T17:23:02.665Z,15.02
2022-10-12T17:25:29.356Z,21.00
2022-10-12T17:27:55.936Z,26.20
2022-10-12T17:30:22.556Z,34.83
2022-10-12T17:32:49.544Z,31.40
2022-10-12T17:35:16.237Z,32.88
2022-10-12T17:37:42.808Z,33.28
2022-10-12T17:40:10.571Z,34.67
2022-10-12T17:42:37.435Z,31.20
2022-10-12T17:45:04.650Z,29.42
2022-10-12T17:47:31.288Z,31.67
2022-10-12T17:49:58.240Z,28.02
2022-10-12T17:52:24.901Z,29.98
2022-10-12T17:54:51.482Z,32.35
2022-10-12T17:57:18.590Z,36.33
2022-10-12T17:59:45.422Z,29.35
2022-10-12T18:02:12.185Z,28.75
2022-10-12T18:04:39.210Z,32.08
2022-10-12T18:07:05.788Z,29.63
2022-10-12T18:09:32.775Z,30.25
2022-10-12T18:11:59.391Z,25.05
2022-10-12T18:14:25.933Z,23.60
2022-10-12T18:16:54.263Z,29.17
2022-10-12T18:19:20.961Z,22.33
2022-10-12T18:21:47.617Z,25.30
2022-10-12T18:24:17.582Z,27.48
2022-10-12T18:26:46.556Z,20.13
2022-10-12T18:29:13.211Z,26.90
2022-10-12T18:31:40.280Z,16.20
2022-10-12T18:34:06.947Z,24.52
2022-10-12T18:36:33.854Z,21.23
2022-10-12T18:39:01.946Z,17.77
2022-10-12T18:41:28.820Z,14.32
2022-10-12T18:44:00.504Z,18.38
2022-10-12T18:46:29.421Z,15.57
2022-10-12T18:48:56.443Z,14.95
2022-10-12T18:51:27.975Z,16.00
2022-10-12T18:53:56.193Z,19.17
2022-10-12T18:56:23.627Z,12.55
2022-10-12T18:58:50.824Z,16.95
2022-10-12T19:01:23.020Z,18.45
2022-10-12T19:03:50.325Z,20.85
2022-10-12T19:06:21.782Z,15.57
2022-10-12T19:08:49.558Z,15.88
2022-10-12T19:11:18.471Z,15.82
2022-10-12T19:14:13.658Z,12.68
2022-10-12T19:16:40.499Z,14.57
2022-10-12T19:19:11.831Z,17.33
2022-10-12T19:21:39.009Z,15.20
2022-10-12T19:24:08.295Z,22.95
2022-10-12T19:26:35.700Z,17.85
2022-10-12T19:29:02.932Z,14.88
2022-10-12T19:31:31.946Z,22.88
2022-10-12T19:34:01.352Z,14.00
2022-10-12T19:36:29.269Z,15.52
2022-10-12T19:39:00.329Z,13.50
2022-10-12T19:41:28.409Z,13.40
2022-10-12T19:43:56.264Z,16.50
2022-10-12T19:46:23.547Z,18.13
2022-10-12T19:48:52.907Z,15.90
2022-10-12T19:51:21.361Z,18.10
2022-10-12T19:53:48.319Z,18.77
2022-10-12T19:56:17.804Z,13.73
2022-10-12T19:58:45.804Z,16.73
2022-10-12T20:01:15.292Z,21.05
2022-10-12T20:03:47.465Z,15.45
2022-10-12T20:06:14.585Z,15.68
2022-10-12T20:08:42.691Z,15.75
2022-10-12T20:11:15.509Z,16.30
2022-10-12T20:13:45.631Z,13.63
2022-10-12T20:16:12.448Z,17.80
2022-10-12T20:18:39.097Z,18.15
2022-10-12T20:21:07.172Z,17.85
2022-10-12T20:23:35.247Z,12.18
2022-10-12T20:26:06.035Z,16.20
2022-10-12T20:28:33.152Z,14.15
2022-10-12T20:31:03.349Z,16.85
2022-10-12T20:33:29.898Z,21.15
2022-10-12T20:35:56.465Z,17.50
2022-10-12T20:38:23.600Z,21.63
2022-10-12T20:41:08.020Z,14.93
2022-10-12T20:43:35.513Z,13.05
2022-10-12T20:46:04.863Z,13.90
2022-10-12T20:48:32.172Z,13.43
2022-10-12T20:50:59.414Z,12.90
2022-10-12T20:53:26.350Z,14.80
2022-10-12T20:55:53.475Z,15.07
2022-10-12T20:58:22.229Z,13.30
2022-10-12T21:01:09.186Z,14.18
2022-10-12T21:03:36.299Z,12.32
2022-10-12T21:06:11.804Z,17.23
2022-10-12T21:08:39.147Z,11.98
2022-10-12T21:11:06.393Z,19.63
2022-10-12T21:13:34.555Z,18.67
2022-10-12T21:16:01.392Z,18.92
2022-10-12T21:18:32.827Z,16.20
2022-10-12T21:21:05.137Z,17.23
2022-10-12T21:23:31.712Z,16.17
2022-10-12T21:25:58.297Z,14.55
2022-10-12T21:28:25.003Z,12.10
2022-10-12T21:30:51.649Z,19.17
2022-10-12T21:33:18.989Z,25.13
2022-10-12T21:35:45.560Z,20.75
2022-10-12T21:38:12.319Z,26.13
2022-10-12T21:40:39.925Z,20.75
2022-10-12T21:43:06.725Z,23.20
2022-10-12T21:45:34.144Z,20.70
2022-10-12T21:48:00.805Z,21.20
2022-10-12T21:50:28.216Z,27.23
2022-10-12T21:52:59.408Z,26.13
2022-10-12T21:55:26.936Z,21.67
2022-10-12T21:57:53.500Z,29.17
2022-10-12T22:00:20.163Z,21.30
2022-10-12T22:02:46.733Z,22.77
2022-10-12T22:05:13.391Z,18.58
2022-10-12T22:07:42.553Z,27.35
2022-10-12T22:10:11.279Z,21.52
2022-10-12T22:12:38.495Z,28.52
2022-10-12T22:15:06.052Z,24.10
2022-10-12T22:17:34.119Z,28.67
2022-10-12T22:20:00.701Z,27.45
2022-10-12T22:22:27.298Z,29.40
2022-10-12T22:24:53.875Z,23.67
2022-10-12T22:27:20.440Z,26.60
2022-10-12T22:29:46.983Z,37.45
2022-10-12T22:32:13.603Z,40.47
2022-10-12T22:34:40.594Z,26.88
2022-10-12T22:37:07.203Z,27.42
2022-10-12T22:39:33.756Z,18.65
2022-10-12T22:42:00.525Z,24.02
2022-10-12T22:44:27.152Z,34.33
2022-10-12T22:46:53.797Z,25.80
2022-10-12T22:49:20.400Z,21.88
2022-10-12T22:51:47.001Z,25.15
2022-10-12T22:54:13.596Z,25.70
2022-10-12T22:56:40.730Z,29.98
2022-10-12T22:59:07.584Z,35.08
2022-10-12T23:01:35.804Z,30.50
2022-10-12T23:04:02.803Z,32.28
2022-10-12T23:06:29.549Z,35.75
2022-10-12T23:08:56.388Z,36.15
2022-10-12T23:11:26.776Z,33.88
2022-10-12T23:13:54.684Z,33.95
2022-10-12T23:16:26.444Z,31.55
2022-10-12T23:18:59.429Z,29.13
2022-10-12T23:21:27.419Z,30.42
2022-10-12T23:23:54.069Z,29.98
2022-10-12T23:26:23.548Z,32.13
2022-10-12T23:28:51.147Z,35.13
2022-10-12T23:31:20.476Z,35.83
2022-10-12T23:33:47.565Z,29.00
2022-10-12T23:36:16.836Z,29.13
2022-10-12T23:38:44.472Z,29.40
2022-10-12T23:41:12.738Z,29.63
2022-10-12T23:43:39.473Z,29.42
2022-10-12T23:46:06.292Z,35.35
2022-10-12T23:48:33.894Z,38.38
2022-10-12T23:51:00.544Z,33.28
2022-10-12T23:53:27.607Z,31.40
2022-10-12T23:55:54.245Z,40.40
2022-10-12T23:58:21.103Z,35.95
